sensor_id;sensor_type;location;lat;lon;timestamp;pressure;altitude;pressure_sealevel;temperature;humidity
55315;BME280;41619;42.816;23.226;2022-08-20T00:01:44;95128.28;;;20.60;57.36
55315;BME280;41619;42.816;23.226;2022-08-20T00:04:12;95122.03;;;20.56;57.49
55315;BME280;41619;42.816;23.226;2022-08-20T00:06:39;95123.34;;;20.51;57.46
55315;BME280;41619;42.816;23.226;2022-08-20T00:09:04;95110.78;;;20.47;57.61
55315;BME280;41619;42.816;23.226;2022-08-20T00:11:30;95115.63;;;20.43;57.75
55315;BME280;41619;42.816;23.226;2022-08-20T00:14:00;95123.34;;;20.35;57.69
55315;BME280;41619;42.816;23.226;2022-08-20T00:16:29;95117.13;;;20.31;57.74
55315;BME280;41619;42.816;23.226;2022-08-20T00:18:56;95111.72;;;20.24;57.86
55315;BME280;41619;42.816;23.226;2022-08-20T00:21:22;95109.47;;;20.19;58.02
55315;BME280;41619;42.816;23.226;2022-08-20T00:23:50;95109.56;;;20.15;58.03
55315;BME280;41619;42.816;23.226;2022-08-20T00:26:17;95105.66;;;20.13;58.16
55315;BME280;41619;42.816;23.226;2022-08-20T00:28:43;95095.06;;;20.08;58.26
55315;BME280;41619;42.816;23.226;2022-08-20T00:31:11;95100.28;;;20.06;58.39
55315;BME280;41619;42.816;23.226;2022-08-20T00:33:38;95085.34;;;20.00;58.35
55315;BME280;41619;42.816;23.226;2022-08-20T00:36:04;95097.69;;;19.99;58.51
55315;BME280;41619;42.816;23.226;2022-08-20T00:38:36;95098.13;;;19.97;58.62
55315;BME280;41619;42.816;23.226;2022-08-20T00:41:02;95100.56;;;19.95;58.66
55315;BME280;41619;42.816;23.226;2022-08-20T00:43:30;95107.31;;;19.94;58.95
55315;BME280;41619;42.816;23.226;2022-08-20T00:45:59;95100.28;;;19.89;59.15
55315;BME280;41619;42.816;23.226;2022-08-20T00:48:26;95099.16;;;19.87;58.99
55315;BME280;41619;42.816;23.226;2022-08-20T00:50:55;95100.81;;;19.84;59.05
55315;BME280;41619;42.816;23.226;2022-08-20T00:53:24;95094.91;;;19.82;59.21
55315;BME280;41619;42.816;23.226;2022-08-20T00:55:50;95089.00;;;19.80;59.20
55315;BME280;41619;42.816;23.226;2022-08-20T00:58:16;95085.88;;;19.78;59.57
55315;BME280;41619;42.816;23.226;2022-08-20T01:00:44;95089.09;;;19.77;59.49
55315;BME280;41619;42.816;23.226;2022-08-20T01:03:13;95091.19;;;19.73;59.68
55315;BME280;41619;42.816;23.226;2022-08-20T01:05:42;95089.25;;;19.70;59.70
55315;BME280;41619;42.816;23.226;2022-08-20T01:08:09;95084.56;;;19.66;59.87
55315;BME280;41619;42.816;23.226;2022-08-20T01:10:37;95078.69;;;19.64;60.08
55315;BME280;41619;42.816;23.226;2022-08-20T01:13:07;95086.31;;;19.60;60.18
55315;BME280;41619;42.816;23.226;2022-08-20T01:15:36;95078.84;;;19.57;60.24
55315;BME280;41619;42.816;23.226;2022-08-20T01:18:04;95075.31;;;19.57;59.98
55315;BME280;41619;42.816;23.226;2022-08-20T01:20:33;95072.19;;;19.55;60.14
55315;BME280;41619;42.816;23.226;2022-08-20T01:26:18;95069.88;;;19.50;60.77
55315;BME280;41619;42.816;23.226;2022-08-20T01:28:57;95069.53;;;19.48;60.58
55315;BME280;41619;42.816;23.226;2022-08-20T01:31:28;95065.28;;;19.43;60.73
55315;BME280;41619;42.816;23.226;2022-08-20T01:33:56;95070.03;;;19.43;60.73
55315;BME280;41619;42.816;23.226;2022-08-20T01:36:25;95062.16;;;19.41;60.98
55315;BME280;41619;42.816;23.226;2022-08-20T01:38:51;95060.16;;;19.42;61.06
55315;BME280;41619;42.816;23.226;2022-08-20T01:44:10;95052.69;;;19.39;61.16
55315;BME280;41619;42.816;23.226;2022-08-20T01:46:40;95053.91;;;19.38;61.18
55315;BME280;41619;42.816;23.226;2022-08-20T01:49:27;95055.13;;;19.36;61.33
55315;BME280;41619;42.816;23.226;2022-08-20T01:51:55;95055.56;;;19.35;61.53
55315;BME280;41619;42.816;23.226;2022-08-20T01:54:24;95051.22;;;19.34;61.41
55315;BME280;41619;42.816;23.226;2022-08-20T01:59:19;95050.84;;;19.32;61.79
55315;BME280;41619;42.816;23.226;2022-08-20T02:01:45;95054.84;;;19.31;61.69
55315;BME280;41619;42.816;23.226;2022-08-20T02:04:10;95057.19;;;19.32;61.70
55315;BME280;41619;42.816;23.226;2022-08-20T02:06:41;95056.41;;;19.32;61.68
55315;BME280;41619;42.816;23.226;2022-08-20T02:09:08;95057.63;;;19.31;61.90
55315;BME280;41619;42.816;23.226;2022-08-20T02:11:35;95060.47;;;19.27;62.21
55315;BME280;41619;42.816;23.226;2022-08-20T02:14:03;95057.44;;;19.22;62.38
55315;BME280;41619;42.816;23.226;2022-08-20T02:16:35;95060.00;;;19.13;62.30
55315;BME280;41619;42.816;23.226;2022-08-20T02:19:07;95050.38;;;19.01;62.38
55315;BME280;41619;42.816;23.226;2022-08-20T02:21:40;95054.06;;;18.94;62.66
55315;BME280;41619;42.816;23.226;2022-08-20T02:24:07;95052.31;;;18.84;62.75
55315;BME280;41619;42.816;23.226;2022-08-20T02:26:33;95057.22;;;18.76;62.68
55315;BME280;41619;42.816;23.226;2022-08-20T02:29:02;95054.94;;;18.71;62.73
55315;BME280;41619;42.816;23.226;2022-08-20T02:31:29;95051.47;;;18.67;62.88
55315;BME280;41619;42.816;23.226;2022-08-20T02:33:55;95057.50;;;18.62;62.85
55315;BME280;41619;42.816;23.226;2022-08-20T02:36:20;95053.94;;;18.62;62.94
55315;BME280;41619;42.816;23.226;2022-08-20T02:38:46;95054.78;;;18.59;62.96
55315;BME280;41619;42.816;23.226;2022-08-20T02:41:11;95054.84;;;18.55;63.07
55315;BME280;41619;42.816;23.226;2022-08-20T02:43:37;95058.47;;;18.52;63.26
55315;BME280;41619;42.816;23.226;2022-08-20T02:46:04;95065.66;;;18.50;63.24
55315;BME280;41619;42.816;23.226;2022-08-20T02:48:30;95064.44;;;18.51;63.18
55315;BME280;41619;42.816;23.226;2022-08-20T02:51:00;95069.22;;;18.50;63.33
55315;BME280;41619;42.816;23.226;2022-08-20T02:53:28;95068.44;;;18.50;63.28
55315;BME280;41619;42.816;23.226;2022-08-20T02:55:55;95060.97;;;18.46;63.28
55315;BME280;41619;42.816;23.226;2022-08-20T02:58:21;95069.28;;;18.46;63.13
55315;BME280;41619;42.816;23.226;2022-08-20T03:00:48;95078.44;;;18.43;63.39
55315;BME280;41619;42.816;23.226;2022-08-20T03:03:15;95076.94;;;18.39;63.34
55315;BME280;41619;42.816;23.226;2022-08-20T03:05:44;95069.91;;;18.34;63.53
55315;BME280;41619;42.816;23.226;2022-08-20T03:08:11;95077.06;;;18.32;63.57
55315;BME280;41619;42.816;23.226;2022-08-20T03:10:38;95073.16;;;18.29;63.74
55315;BME280;41619;42.816;23.226;2022-08-20T03:13:05;95073.66;;;18.24;63.64
55315;BME280;41619;42.816;23.226;2022-08-20T03:15:35;95072.09;;;18.23;63.69
55315;BME280;41619;42.816;23.226;2022-08-20T03:18:01;95068.94;;;18.21;63.64
55315;BME280;41619;42.816;23.226;2022-08-20T03:20:27;95072.94;;;18.20;64.12
55315;BME280;41619;42.816;23.226;2022-08-20T03:22:53;95064.19;;;18.22;63.79
55315;BME280;41619;42.816;23.226;2022-08-20T03:25:19;95072.50;;;18.22;64.00
55315;BME280;41619;42.816;23.226;2022-08-20T03:27:44;95066.19;;;18.21;64.05
55315;BME280;41619;42.816;23.226;2022-08-20T03:30:12;95064.63;;;18.20;64.13
55315;BME280;41619;42.816;23.226;2022-08-20T03:32:39;95063.06;;;18.19;64.26
55315;BME280;41619;42.816;23.226;2022-08-20T03:35:07;95070.59;;;18.19;64.02
55315;BME280;41619;42.816;23.226;2022-08-20T03:37:34;95071.78;;;18.17;64.18
55315;BME280;41619;42.816;23.226;2022-08-20T03:40:01;95076.13;;;18.19;64.37
55315;BME280;41619;42.816;23.226;2022-08-20T03:42:27;95080.09;;;18.17;64.20
55315;BME280;41619;42.816;23.226;2022-08-20T03:44:53;95079.69;;;18.19;64.41
55315;BME280;41619;42.816;23.226;2022-08-20T03:47:18;95087.19;;;18.19;64.33
55315;BME280;41619;42.816;23.226;2022-08-20T03:49:44;95091.53;;;18.20;64.44
55315;BME280;41619;42.816;23.226;2022-08-20T03:52:09;95089.53;;;18.20;64.42
55315;BME280;41619;42.816;23.226;2022-08-20T03:54:35;95087.56;;;18.21;64.27
55315;BME280;41619;42.816;23.226;2022-08-20T03:57:01;95090.75;;;18.19;64.52
55315;BME280;41619;42.816;23.226;2022-08-20T03:59:27;95093.59;;;18.15;64.51
55315;BME280;41619;42.816;23.226;2022-08-20T04:01:54;95088.47;;;18.14;64.55
55315;BME280;41619;42.816;23.226;2022-08-20T04:04:19;95090.81;;;18.15;64.65
55315;BME280;41619;42.816;23.226;2022-08-20T04:06:45;95088.06;;;18.15;64.66
55315;BME280;41619;42.816;23.226;2022-08-20T04:09:12;95088.47;;;18.14;64.79
55315;BME280;41619;42.816;23.226;2022-08-20T04:11:37;95094.38;;;18.16;64.81
55315;BME280;41619;42.816;23.226;2022-08-20T04:14:03;95084.50;;;18.15;64.81
55315;BME280;41619;42.816;23.226;2022-08-20T04:16:28;95090.03;;;18.15;65.17
55315;BME280;41619;42.816;23.226;2022-08-20T04:18:54;95089.63;;;18.16;64.98
55315;BME280;41619;42.816;23.226;2022-08-20T04:21:19;95088.75;;;18.20;65.06
55315;BME280;41619;42.816;23.226;2022-08-20T04:23:44;95101.00;;;18.22;64.90
55315;BME280;41619;42.816;23.226;2022-08-20T04:26:10;95086.72;;;18.24;64.96
55315;BME280;41619;42.816;23.226;2022-08-20T04:28:35;95093.41;;;18.26;64.83
55315;BME280;41619;42.816;23.226;2022-08-20T04:31:01;95086.66;;;18.27;65.03
55315;BME280;41619;42.816;23.226;2022-08-20T04:33:28;95084.59;;;18.31;64.86
55315;BME280;41619;42.816;23.226;2022-08-20T04:35:57;95094.75;;;18.38;64.86
55315;BME280;41619;42.816;23.226;2022-08-20T04:38:28;95100.63;;;18.43;65.00
55315;BME280;41619;42.816;23.226;2022-08-20T04:40:53;95102.88;;;18.49;64.87
55315;BME280;41619;42.816;23.226;2022-08-20T04:43:30;95105.94;;;18.54;64.60
55315;BME280;41619;42.816;23.226;2022-08-20T04:45:59;95109.03;;;18.60;64.81
55315;BME280;41619;42.816;23.226;2022-08-20T04:48:27;95104.56;;;18.66;64.81
55315;BME280;41619;42.816;23.226;2022-08-20T04:50:54;95097.31;;;18.72;64.74
55315;BME280;41619;42.816;23.226;2022-08-20T04:53:22;95097.59;;;18.77;64.73
55315;BME280;41619;42.816;23.226;2022-08-20T04:55:48;95093.13;;;18.84;64.76
55315;BME280;41619;42.816;23.226;2022-08-20T04:58:22;95096.94;;;18.90;64.59
55315;BME280;41619;42.816;23.226;2022-08-20T05:00:56;95097.59;;;18.97;64.66
55315;BME280;41619;42.816;23.226;2022-08-20T05:03:23;95097.78;;;19.06;64.47
55315;BME280;41619;42.816;23.226;2022-08-20T05:05:48;95096.06;;;19.13;64.50
55315;BME280;41619;42.816;23.226;2022-08-20T05:08:15;95100.63;;;19.23;64.60
55315;BME280;41619;42.816;23.226;2022-08-20T05:10:41;95104.78;;;19.31;64.38
55315;BME280;41619;42.816;23.226;2022-08-20T05:13:07;95105.00;;;19.40;64.42
55315;BME280;41619;42.816;23.226;2022-08-20T05:15:33;95102.03;;;19.47;64.20
55315;BME280;41619;42.816;23.226;2022-08-20T05:17:59;95108.94;;;19.59;64.37
55315;BME280;41619;42.816;23.226;2022-08-20T05:20:28;95106.34;;;19.68;64.30
55315;BME280;41619;42.816;23.226;2022-08-20T05:22:59;95111.66;;;19.79;64.18
55315;BME280;41619;42.816;23.226;2022-08-20T05:25:26;95114.97;;;19.90;64.17
55315;BME280;41619;42.816;23.226;2022-08-20T05:28:07;95105.94;;;20.02;64.06
55315;BME280;41619;42.816;23.226;2022-08-20T05:30:36;95110.69;;;20.18;64.17
55315;BME280;41619;42.816;23.226;2022-08-20T05:33:06;95105.22;;;20.31;63.90
55315;BME280;41619;42.816;23.226;2022-08-20T05:35:33;95103.72;;;20.42;63.85
55315;BME280;41619;42.816;23.226;2022-08-20T05:38:00;95100.25;;;20.54;63.56
55315;BME280;41619;42.816;23.226;2022-08-20T05:40:27;95098.75;;;20.66;63.35
55315;BME280;41619;42.816;23.226;2022-08-20T05:42:53;95096.75;;;20.79;63.24
55315;BME280;41619;42.816;23.226;2022-08-20T05:45:19;95085.25;;;20.94;63.37
55315;BME280;41619;42.816;23.226;2022-08-20T05:47:45;95086.50;;;21.05;63.01
55315;BME280;41619;42.816;23.226;2022-08-20T05:50:13;95090.50;;;21.17;62.54
55315;BME280;41619;42.816;23.226;2022-08-20T05:52:39;95096.13;;;21.30;62.53
55315;BME280;41619;42.816;23.226;2022-08-20T05:55:06;95085.81;;;21.43;62.09
55315;BME280;41619;42.816;23.226;2022-08-20T05:57:31;95086.16;;;21.58;61.49
55315;BME280;41619;42.816;23.226;2022-08-20T06:00:00;95084.00;;;21.74;61.15
55315;BME280;41619;42.816;23.226;2022-08-20T06:02:29;95082.44;;;21.86;60.73
55315;BME280;41619;42.816;23.226;2022-08-20T06:05:13;95076.41;;;22.00;60.38
55315;BME280;41619;42.816;23.226;2022-08-20T06:07:38;95070.84;;;22.13;60.22
55315;BME280;41619;42.816;23.226;2022-08-20T06:10:05;95065.22;;;22.26;60.05
55315;BME280;41619;42.816;23.226;2022-08-20T06:12:31;95067.19;;;22.38;59.84
55315;BME280;41619;42.816;23.226;2022-08-20T06:14:57;95074.75;;;22.50;59.67
55315;BME280;41619;42.816;23.226;2022-08-20T06:17:23;95069.88;;;22.63;58.96
55315;BME280;41619;42.816;23.226;2022-08-20T06:19:48;95073.25;;;22.80;58.46
55315;BME280;41619;42.816;23.226;2022-08-20T06:22:14;95070.75;;;22.95;58.12
55315;BME280;41619;42.816;23.226;2022-08-20T06:24:40;95069.00;;;23.10;57.39
55315;BME280;41619;42.816;23.226;2022-08-20T06:27:05;95069.25;;;23.25;56.81
55315;BME280;41619;42.816;23.226;2022-08-20T06:29:31;95073.03;;;23.40;56.82
55315;BME280;41619;42.816;23.226;2022-08-20T06:32:01;95072.47;;;23.54;56.48
55315;BME280;41619;42.816;23.226;2022-08-20T06:34:27;95063.13;;;23.70;55.88
55315;BME280;41619;42.816;23.226;2022-08-20T06:36:54;95065.97;;;23.89;55.69
55315;BME280;41619;42.816;23.226;2022-08-20T06:39:19;95063.22;;;24.07;55.38
55315;BME280;41619;42.816;23.226;2022-08-20T06:41:45;95057.97;;;24.27;54.78
55315;BME280;41619;42.816;23.226;2022-08-20T06:44:10;95058.03;;;24.45;54.13
55315;BME280;41619;42.816;23.226;2022-08-20T06:46:37;95063.00;;;24.60;53.84
55315;BME280;41619;42.816;23.226;2022-08-20T06:49:04;95060.69;;;24.76;53.21
55315;BME280;41619;42.816;23.226;2022-08-20T06:51:30;95051.78;;;24.96;53.32
55315;BME280;41619;42.816;23.226;2022-08-20T06:53:55;95060.97;;;25.15;52.97
55315;BME280;41619;42.816;23.226;2022-08-20T06:56:21;95054.53;;;25.33;52.71
55315;BME280;41619;42.816;23.226;2022-08-20T06:58:47;95052.94;;;25.50;52.14
55315;BME280;41619;42.816;23.226;2022-08-20T07:01:14;95048.06;;;25.69;51.49
55315;BME280;41619;42.816;23.226;2022-08-20T07:03:46;95045.97;;;25.79;51.05
55315;BME280;41619;42.816;23.226;2022-08-20T07:06:12;95041.59;;;25.87;50.49
55315;BME280;41619;42.816;23.226;2022-08-20T07:08:38;95036.22;;;25.98;50.67
55315;BME280;41619;42.816;23.226;2022-08-20T07:11:04;95042.97;;;26.15;49.83
55315;BME280;41619;42.816;23.226;2022-08-20T07:13:30;95044.19;;;26.23;49.48
55315;BME280;41619;42.816;23.226;2022-08-20T07:15:55;95036.34;;;26.27;49.38
55315;BME280;41619;42.816;23.226;2022-08-20T07:18:22;95027.41;;;26.38;49.32
55315;BME280;41619;42.816;23.226;2022-08-20T07:20:47;95025.44;;;26.53;49.00
55315;BME280;41619;42.816;23.226;2022-08-20T07:23:13;95024.50;;;26.71;48.60
55315;BME280;41619;42.816;23.226;2022-08-20T07:25:41;95019.00;;;26.92;48.53
55315;BME280;41619;42.816;23.226;2022-08-20T07:28:13;95024.75;;;27.12;47.97
55315;BME280;41619;42.816;23.226;2022-08-20T07:30:39;95033.00;;;27.30;47.63
55315;BME280;41619;42.816;23.226;2022-08-20T07:33:25;95020.88;;;27.54;47.68
55315;BME280;41619;42.816;23.226;2022-08-20T07:35:50;95024.06;;;27.76;46.90
55315;BME280;41619;42.816;23.226;2022-08-20T07:38:20;95022.81;;;27.97;47.08
55315;BME280;41619;42.816;23.226;2022-08-20T07:40:53;95016.44;;;28.17;46.10
55315;BME280;41619;42.816;23.226;2022-08-20T07:43:19;95014.38;;;28.32;45.95
55315;BME280;41619;42.816;23.226;2022-08-20T07:45:47;95016.34;;;28.47;45.82
55315;BME280;41619;42.816;23.226;2022-08-20T07:48:13;95022.09;;;28.58;44.94
55315;BME280;41619;42.816;23.226;2022-08-20T07:50:39;95023.78;;;28.70;45.11
55315;BME280;41619;42.816;23.226;2022-08-20T07:53:06;95012.25;;;28.88;44.98
55315;BME280;41619;42.816;23.226;2022-08-20T07:55:32;95034.69;;;29.03;44.46
55315;BME280;41619;42.816;23.226;2022-08-20T07:58:03;95024.78;;;29.13;44.13
55315;BME280;41619;42.816;23.226;2022-08-20T08:00:31;95022.88;;;29.31;43.96
55315;BME280;41619;42.816;23.226;2022-08-20T08:02:56;95016.44;;;29.50;43.84
55315;BME280;41619;42.816;23.226;2022-08-20T08:05:22;95009.66;;;29.74;43.09
55315;BME280;41619;42.816;23.226;2022-08-20T08:07:48;95013.66;;;29.93;42.95
55315;BME280;41619;42.816;23.226;2022-08-20T08:10:16;95014.53;;;30.05;42.11
55315;BME280;41619;42.816;23.226;2022-08-20T08:12:46;95014.38;;;30.20;41.97
55315;BME280;41619;42.816;23.226;2022-08-20T08:15:16;95009.31;;;30.40;42.05
55315;BME280;41619;42.816;23.226;2022-08-20T08:17:45;95010.88;;;30.47;41.27
55315;BME280;41619;42.816;23.226;2022-08-20T08:20:15;95013.03;;;30.63;41.87
55315;BME280;41619;42.816;23.226;2022-08-20T08:22:41;95001.81;;;30.86;41.07
55315;BME280;41619;42.816;23.226;2022-08-20T08:25:12;95001.56;;;30.89;40.34
55315;BME280;41619;42.816;23.226;2022-08-20T08:27:39;95000.56;;;30.98;40.29
55315;BME280;41619;42.816;23.226;2022-08-20T08:30:05;95005.22;;;31.12;40.29
55315;BME280;41619;42.816;23.226;2022-08-20T08:32:31;95002.69;;;31.31;39.58
55315;BME280;41619;42.816;23.226;2022-08-20T08:34:57;94988.06;;;31.49;39.38
55315;BME280;41619;42.816;23.226;2022-08-20T08:37:23;94991.91;;;31.57;38.75
55315;BME280;41619;42.816;23.226;2022-08-20T08:39:49;94987.78;;;31.47;38.20
55315;BME280;41619;42.816;23.226;2022-08-20T08:42:27;94981.88;;;31.34;38.12
55315;BME280;41619;42.816;23.226;2022-08-20T08:44:58;94983.41;;;31.29;38.00
55315;BME280;41619;42.816;23.226;2022-08-20T08:47:28;94978.78;;;31.21;37.78
55315;BME280;41619;42.816;23.226;2022-08-20T08:49:54;94980.59;;;31.29;38.06
55315;BME280;41619;42.816;23.226;2022-08-20T08:52:25;94977.00;;;31.46;38.01
55315;BME280;41619;42.816;23.226;2022-08-20T08:54:55;94971.84;;;31.67;37.22
55315;BME280;41619;42.816;23.226;2022-08-20T08:57:22;94971.84;;;31.83;37.08
55315;BME280;41619;42.816;23.226;2022-08-20T08:59:55;94966.16;;;31.94;37.02
55315;BME280;41619;42.816;23.226;2022-08-20T09:02:23;94972.03;;;32.08;36.14
55315;BME280;41619;42.816;23.226;2022-08-20T09:04:51;94977.47;;;32.00;35.90
55315;BME280;41619;42.816;23.226;2022-08-20T09:07:21;94966.69;;;31.87;36.01
55315;BME280;41619;42.816;23.226;2022-08-20T09:09:49;94956.16;;;31.88;35.76
55315;BME280;41619;42.816;23.226;2022-08-20T09:12:18;94961.53;;;32.03;36.20
55315;BME280;41619;42.816;23.226;2022-08-20T09:14:48;94955.00;;;32.30;36.48
55315;BME280;41619;42.816;23.226;2022-08-20T09:17:18;94960.81;;;32.60;36.10
55315;BME280;41619;42.816;23.226;2022-08-20T09:19:44;94962.03;;;32.76;35.51
55315;BME280;41619;42.816;23.226;2022-08-20T09:22:13;94958.84;;;32.91;34.79
55315;BME280;41619;42.816;23.226;2022-08-20T09:24:38;94960.56;;;33.05;34.68
55315;BME280;41619;42.816;23.226;2022-08-20T09:27:04;94962.28;;;33.19;34.81
55315;BME280;41619;42.816;23.226;2022-08-20T09:29:30;94957.91;;;33.18;33.79
55315;BME280;41619;42.816;23.226;2022-08-20T09:34:41;94940.81;;;33.29;34.19
55315;BME280;41619;42.816;23.226;2022-08-20T09:37:07;94932.44;;;33.48;34.48
55315;BME280;41619;42.816;23.226;2022-08-20T09:39:33;94936.16;;;33.62;34.22
55315;BME280;41619;42.816;23.226;2022-08-20T09:42:09;94934.75;;;33.74;33.85
55315;BME280;41619;42.816;23.226;2022-08-20T09:44:34;94940.22;;;33.96;34.03
55315;BME280;41619;42.816;23.226;2022-08-20T09:47:00;94922.25;;;34.13;34.00
55315;BME280;41619;42.816;23.226;2022-08-20T09:49:25;94934.28;;;34.19;33.56
55315;BME280;41619;42.816;23.226;2022-08-20T09:51:51;94936.72;;;34.33;33.49
55315;BME280;41619;42.816;23.226;2022-08-20T09:54:18;94928.84;;;34.45;33.27
55315;BME280;41619;42.816;23.226;2022-08-20T09:56:44;94931.63;;;34.51;32.92
55315;BME280;41619;42.816;23.226;2022-08-20T09:59:09;94928.41;;;34.60;32.69
55315;BME280;41619;42.816;23.226;2022-08-20T10:01:35;94931.63;;;34.70;32.44
55315;BME280;41619;42.816;23.226;2022-08-20T10:04:00;94928.47;;;34.73;32.40
55315;BME280;41619;42.816;23.226;2022-08-20T10:06:26;94936.22;;;34.73;32.01
55315;BME280;41619;42.816;23.226;2022-08-20T10:08:51;94936.63;;;34.64;32.47
55315;BME280;41619;42.816;23.226;2022-08-20T10:11:17;94930.00;;;34.55;32.09
55315;BME280;41619;42.816;23.226;2022-08-20T10:13:42;94921.41;;;34.61;32.60
55315;BME280;41619;42.816;23.226;2022-08-20T10:16:08;94922.88;;;34.68;31.84
55315;BME280;41619;42.816;23.226;2022-08-20T10:18:34;94916.00;;;34.76;32.30
55315;BME280;41619;42.816;23.226;2022-08-20T10:21:00;94921.81;;;34.89;31.38
55315;BME280;41619;42.816;23.226;2022-08-20T10:23:25;94919.03;;;35.03;31.34
55315;BME280;41619;42.816;23.226;2022-08-20T10:25:50;94918.06;;;35.13;31.34
55315;BME280;41619;42.816;23.226;2022-08-20T10:28:16;94920.75;;;35.25;30.83
55315;BME280;41619;42.816;23.226;2022-08-20T10:30:41;94919.59;;;35.33;31.20
55315;BME280;41619;42.816;23.226;2022-08-20T10:33:09;94916.28;;;35.29;30.61
55315;BME280;41619;42.816;23.226;2022-08-20T10:35:34;94906.69;;;35.13;31.02
55315;BME280;41619;42.816;23.226;2022-08-20T10:38:00;94904.16;;;34.97;30.80
55315;BME280;41619;42.816;23.226;2022-08-20T10:40:25;94900.97;;;34.81;30.68
55315;BME280;41619;42.816;23.226;2022-08-20T10:42:51;94900.34;;;34.70;31.11
55315;BME280;41619;42.816;23.226;2022-08-20T10:45:16;94899.81;;;34.71;31.67
55315;BME280;41619;42.816;23.226;2022-08-20T10:47:42;94893.06;;;34.55;31.08
55315;BME280;41619;42.816;23.226;2022-08-20T10:50:12;94893.16;;;34.50;31.09
55315;BME280;41619;42.816;23.226;2022-08-20T10:52:37;94887.09;;;34.59;31.17
55315;BME280;41619;42.816;23.226;2022-08-20T10:55:03;94894.31;;;34.60;31.77
55315;BME280;41619;42.816;23.226;2022-08-20T10:57:30;94891.22;;;34.58;31.82
55315;BME280;41619;42.816;23.226;2022-08-20T10:59:57;94884.63;;;34.50;31.72
55315;BME280;41619;42.816;23.226;2022-08-20T11:02:23;94883.75;;;34.36;31.23
55315;BME280;41619;42.816;23.226;2022-08-20T11:04:49;94880.75;;;34.28;31.96
55315;BME280;41619;42.816;23.226;2022-08-20T11:09:45;94879.41;;;34.54;32.68
55315;BME280;41619;42.816;23.226;2022-08-20T11:12:11;94880.47;;;34.70;31.59
55315;BME280;41619;42.816;23.226;2022-08-20T11:14:36;94875.78;;;34.72;32.13
55315;BME280;41619;42.816;23.226;2022-08-20T11:17:03;94862.88;;;34.71;31.50
55315;BME280;41619;42.816;23.226;2022-08-20T11:19:28;94866.47;;;34.72;31.21
55315;BME280;41619;42.816;23.226;2022-08-20T11:21:54;94855.97;;;34.67;30.88
55315;BME280;41619;42.816;23.226;2022-08-20T11:24:19;94858.91;;;34.61;30.74
55315;BME280;41619;42.816;23.226;2022-08-20T11:26:46;94844.16;;;34.44;30.13
55315;BME280;41619;42.816;23.226;2022-08-20T11:29:13;94843.97;;;34.17;29.64
55315;BME280;41619;42.816;23.226;2022-08-20T11:31:39;94831.22;;;34.05;30.88
55315;BME280;41619;42.816;23.226;2022-08-20T11:34:04;94826.16;;;34.17;29.85
55315;BME280;41619;42.816;23.226;2022-08-20T11:36:30;94823.50;;;34.24;29.93
55315;BME280;41619;42.816;23.226;2022-08-20T11:38:56;94821.66;;;34.27;29.73
55315;BME280;41619;42.816;23.226;2022-08-20T11:41:21;94826.94;;;34.17;29.99
55315;BME280;41619;42.816;23.226;2022-08-20T11:43:47;94827.78;;;34.12;29.60
55315;BME280;41619;42.816;23.226;2022-08-20T11:46:12;94823.84;;;33.96;29.79
55315;BME280;41619;42.816;23.226;2022-08-20T11:48:38;94816.19;;;33.91;29.46
55315;BME280;41619;42.816;23.226;2022-08-20T11:51:03;94810.03;;;33.87;29.34
55315;BME280;41619;42.816;23.226;2022-08-20T11:53:29;94822.47;;;33.84;29.68
55315;BME280;41619;42.816;23.226;2022-08-20T11:55:55;94813.44;;;33.80;30.06
55315;BME280;41619;42.816;23.226;2022-08-20T11:58:20;94813.03;;;33.70;30.30
55315;BME280;41619;42.816;23.226;2022-08-20T12:00:46;94812.41;;;33.59;30.41
55315;BME280;41619;42.816;23.226;2022-08-20T12:03:11;94813.03;;;33.46;30.55
55315;BME280;41619;42.816;23.226;2022-08-20T12:05:39;94820.94;;;33.29;30.30
55315;BME280;41619;42.816;23.226;2022-08-20T12:08:05;94821.63;;;33.10;30.53
55315;BME280;41619;42.816;23.226;2022-08-20T12:10:31;94829.75;;;32.95;30.34
55315;BME280;41619;42.816;23.226;2022-08-20T12:12:57;94830.88;;;32.81;30.95
55315;BME280;41619;42.816;23.226;2022-08-20T12:15:22;94836.38;;;32.68;30.87
55315;BME280;41619;42.816;23.226;2022-08-20T12:17:49;94829.50;;;32.52;30.95
55315;BME280;41619;42.816;23.226;2022-08-20T12:20:14;94843.28;;;32.37;31.17
55315;BME280;41619;42.816;23.226;2022-08-20T12:22:40;94842.28;;;32.23;31.52
55315;BME280;41619;42.816;23.226;2022-08-20T12:25:07;94831.84;;;32.01;32.96
55315;BME280;41619;42.816;23.226;2022-08-20T12:27:33;94831.41;;;31.86;31.98
55315;BME280;41619;42.816;23.226;2022-08-20T12:30:03;94832.72;;;31.74;32.89
55315;BME280;41619;42.816;23.226;2022-08-20T12:32:30;94833.00;;;31.64;32.42
55315;BME280;41619;42.816;23.226;2022-08-20T12:34:56;94829.91;;;31.57;32.11
55315;BME280;41619;42.816;23.226;2022-08-20T12:37:24;94817.84;;;31.51;32.76
55315;BME280;41619;42.816;23.226;2022-08-20T12:39:52;94823.53;;;31.40;35.44
55315;BME280;41619;42.816;23.226;2022-08-20T12:42:18;94828.19;;;31.20;37.96
55315;BME280;41619;42.816;23.226;2022-08-20T12:44:44;94824.09;;;30.93;41.76
55315;BME280;41619;42.816;23.226;2022-08-20T12:47:13;94821.25;;;30.65;44.88
55315;BME280;41619;42.816;23.226;2022-08-20T12:49:41;94817.09;;;30.38;46.35
55315;BME280;41619;42.816;23.226;2022-08-20T12:52:08;94814.25;;;30.16;47.47
55315;BME280;41619;42.816;23.226;2022-08-20T12:54:34;94814.88;;;29.89;48.84
55315;BME280;41619;42.816;23.226;2022-08-20T12:57:00;94822.75;;;29.68;50.11
55315;BME280;41619;42.816;23.226;2022-08-20T12:59:25;94829.06;;;29.46;50.23
55315;BME280;41619;42.816;23.226;2022-08-20T13:01:52;94820.22;;;29.27;50.76
55315;BME280;41619;42.816;23.226;2022-08-20T13:04:17;94817.25;;;29.05;52.43